Weather reports worldwide

Advertisment
Kinbrace, United Kingdom (99016): temperature & dewpoint: 17.05.2018 02:00:00 - 23.05.2018 02:00:00 (BST)Kinbrace, United Kingdom (99016): wind speed & gusts: 17.05.2018 02:00:00 - 23.05.2018 02:00:00 (BST)Kinbrace, United Kingdom (99016): wind direction: 17.05.2018 02:00:00 - 23.05.2018 02:00:00 (BST)Kinbrace, United Kingdom (99016): precipitation: 17.05.2018 02:00:00 - 23.05.2018 02:00:00 (BST)
Date & Time tt [°C] td [°C] ff [km/h] ff [kn] fx [km/h] fx [kn] dd rr [mm]
23.05.2018 02:00:00 - - - - - - - -
23.05.2018 01:00:00 7,6 4,7 9 5 - - SE 0,0
23.05.2018 00:00:00 7,7 4,8 8 4 - - ESE 0,0
22.05.2018 23:00:00 7,8 4,3 5 3 - - SE 0,0
22.05.2018 22:00:00 7,9 4,3 9 5 - - SE 0,0
22.05.2018 21:00:00 8,4 4,5 11 6 - - SE 0,0
22.05.2018 20:00:00 8,8 4,9 11 6 - - SE 0,0
22.05.2018 19:00:00 9,3 5,2 16 9 - - E 0,0
22.05.2018 18:00:00 10,1 5,0 16 9 - - ESE 0,0
22.05.2018 17:00:00 11,2 5,2 15 8 - - E 0,0
22.05.2018 16:00:00 11,2 5,7 13 7 - - ENE 0,0
22.05.2018 15:00:00 10,8 5,6 16 9 - - ENE 0,0
22.05.2018 14:00:00 10,5 5,3 13 7 - - E 0,0
22.05.2018 13:00:00 10,5 6,1 18 10 - - E 0,0
22.05.2018 12:00:00 10,2 5,2 16 9 - - ENE 0,0
22.05.2018 11:00:00 9,8 5,3 16 9 - - ENE 0,0
22.05.2018 10:00:00 8,8 5,6 15 8 - - NE 0,0
22.05.2018 09:00:00 8,1 5,0 21 11 - - NE 0,0
22.05.2018 08:00:00 7,8 5,3 18 10 - - NNE 0,0
22.05.2018 07:00:00 6,6 5,4 16 9 - - N 0,0
22.05.2018 06:00:00 5,6 5,1 11 6 - - N 0,0
22.05.2018 05:00:00 5,8 5,2 8 4 - - NNW 0,0
22.05.2018 04:00:00 5,8 5,3 13 7 - - NNW 0,0
22.05.2018 03:00:00 5,7 5,3 11 6 - - N 0,0
22.05.2018 02:00:00 5,4 5,0 8 4 - - NNW 0,0
22.05.2018 01:00:00 5,4 4,9 5 3 - - NW 0,0
22.05.2018 00:00:00 5,5 5,0 9 5 - - NNW 0,4
21.05.2018 23:00:00 5,7 5,2 9 5 - - NNW 0,2
21.05.2018 22:00:00 5,9 5,3 15 8 - - N 0,0
21.05.2018 21:00:00 6,1 5,5 18 10 - - N 0,2
21.05.2018 20:00:00 6,2 5,5 21 11 - - NNW 1,4
21.05.2018 19:00:00 6,4 5,9 22 12 - - NNW 1,4
21.05.2018 18:00:00 7,0 6,5 22 12 - - NNW 0,2
21.05.2018 17:00:00 7,1 6,5 22 12 - - N 0,2
21.05.2018 16:00:00 7,3 6,8 28 15 - - N 0,2
21.05.2018 15:00:00 8,0 7,5 28 15 - - N 0,6
21.05.2018 14:00:00 8,9 8,4 24 13 - - N 0,8
21.05.2018 13:00:00 9,5 9,1 24 13 - - N 0,4
21.05.2018 12:00:00 9,6 9,2 21 11 - - N 0,2
21.05.2018 11:00:00 9,8 9,5 16 9 - - N 0,4
21.05.2018 10:00:00 9,8 9,5 15 8 - - N 0,4
21.05.2018 09:00:00 9,5 9,2 16 9 - - NNW 0,6
21.05.2018 08:00:00 9,1 8,9 16 9 - - NNW 1,0
21.05.2018 07:00:00 8,9 8,7 15 8 - - NNW 1,6
21.05.2018 06:00:00 8,9 8,7 15 8 - - NW 1,4
21.05.2018 05:00:00 8,9 8,7 15 8 - - NW 1,2
21.05.2018 04:00:00 9,2 8,9 8 4 - - N 0,8
21.05.2018 03:00:00 9,7 9,1 11 6 - - NNE 0,6
21.05.2018 02:00:00 10,7 9,7 16 9 - - NNE 0,0
21.05.2018 01:00:00 11,8 10,4 11 6 - - N 0,0
21.05.2018 00:00:00 13,9 10,8 9 5 - - S 0,0
20.05.2018 23:00:00 14,6 11,0 9 5 - - SE 0,0
20.05.2018 22:00:00 14,6 11,0 2 1 - - SSE 0,0
20.05.2018 21:00:00 15,3 11,1 13 7 - - SSE 0,0
20.05.2018 20:00:00 15,6 11,1 11 6 - - S 0,0
20.05.2018 19:00:00 16,3 11,2 16 9 - - S 0,0
20.05.2018 18:00:00 17,0 11,1 15 8 - - SSW 0,0
20.05.2018 17:00:00 17,0 11,2 16 9 - - S 0,0
20.05.2018 16:00:00 17,4 11,2 22 12 - - SSW 0,0
20.05.2018 15:00:00 17,2 10,9 22 12 46 25 S 0,0
20.05.2018 14:00:00 17,9 11,6 29 16 52 28 S 0,0
20.05.2018 13:00:00 17,5 11,4 28 15 50 27 S 0,0
20.05.2018 12:00:00 17,8 11,0 34 18 46 25 S 0,0
20.05.2018 11:00:00 17,4 10,6 29 16 46 25 S 0,0
20.05.2018 10:00:00 16,2 10,0 26 14 - - S 0,0
20.05.2018 09:00:00 14,0 9,1 28 15 - - SSE 0,0
20.05.2018 08:00:00 13,0 8,6 21 11 - - SSE 0,0
20.05.2018 07:00:00 13,0 8,6 21 11 - - SE 0,0
20.05.2018 06:00:00 12,6 8,9 21 11 - - SSE 0,0
20.05.2018 05:00:00 12,4 8,8 24 13 - - SSE 0,0
20.05.2018 04:00:00 12,2 9,1 24 13 - - SE 0,4
20.05.2018 03:00:00 12,0 9,1 28 15 - - SE 0,6
20.05.2018 02:00:00 13,4 7,0 28 15 - - SSE 0,0
20.05.2018 01:00:00 14,2 5,5 29 16 - - SSE 0,0
20.05.2018 00:00:00 14,2 5,5 24 13 - - SSE 0,0
19.05.2018 23:00:00 14,3 7,0 18 10 - - SSE 0,0
19.05.2018 22:00:00 15,6 7,5 21 11 - - SSE 0,0
19.05.2018 21:00:00 16,4 7,7 18 10 - - S 0,0
19.05.2018 20:00:00 17,5 7,6 16 9 - - S 0,0
19.05.2018 19:00:00 18,5 7,6 26 14 - - S 0,0
19.05.2018 18:00:00 19,6 8,3 26 14 - - SSW 0,0
19.05.2018 17:00:00 20,1 9,4 26 14 - - S 0,0
19.05.2018 16:00:00 20,0 9,0 24 13 - - SSW 0,0
19.05.2018 15:00:00 18,1 8,2 24 13 - - S 0,0
19.05.2018 14:00:00 18,1 9,7 24 13 - - S 0,0
19.05.2018 13:00:00 17,4 9,1 26 14 - - S 0,0
19.05.2018 12:00:00 16,7 8,5 29 16 - - S 0,0
19.05.2018 11:00:00 16,6 9,1 24 13 - - S 0,0
19.05.2018 10:00:00 16,4 9,3 26 14 - - S 0,0
19.05.2018 09:00:00 15,3 9,0 16 9 - - SSE 0,0
19.05.2018 08:00:00 13,6 8,5 13 7 - - SE 0,0
19.05.2018 07:00:00 10,6 8,7 5 3 - - SW 0,0
19.05.2018 06:00:00 9,2 7,6 5 3 - - SSE 0,0
19.05.2018 05:00:00 8,8 7,2 4 2 - - N 0,0
19.05.2018 04:00:00 8,5 6,9 2 1 - - SSE 0,0
19.05.2018 03:00:00 8,5 6,8 4 2 - - E 0,0
19.05.2018 02:00:00 8,6 6,3 2 1 - - SSE 0,0
19.05.2018 01:00:00 8,9 6,4 4 2 - - S 0,0
19.05.2018 00:00:00 10,1 7,2 4 2 - - ESE 0,0
18.05.2018 23:00:00 11,2 7,6 4 2 - - S 0,0
18.05.2018 22:00:00 11,7 7,7 4 2 - - S 0,0
18.05.2018 21:00:00 13,2 7,5 5 3 - - W 0,0
18.05.2018 20:00:00 14,7 7,5 11 6 - - W 0,0
18.05.2018 19:00:00 15,7 8,4 9 5 - - W 0,0
18.05.2018 18:00:00 14,7 7,1 8 4 - - W 0,0
18.05.2018 17:00:00 15,0 6,6 11 6 - - WSW 0,0
18.05.2018 16:00:00 15,3 6,3 13 7 - - WSW 0,0
18.05.2018 15:00:00 16,3 6,7 9 5 - - WSW 0,0
18.05.2018 14:00:00 16,3 5,3 11 6 - - SW 0,0
18.05.2018 13:00:00 16,2 7,1 9 5 - - SSE 0,0
18.05.2018 12:00:00 15,2 7,0 9 5 - - SW 0,0
18.05.2018 11:00:00 13,5 6,3 15 8 - - S 0,0
18.05.2018 10:00:00 12,8 5,3 15 8 - - SSW 0,0
18.05.2018 09:00:00 12,6 6,6 9 5 - - SSW 0,0
18.05.2018 08:00:00 8,7 8,2 2 1 - - S 0,0
18.05.2018 07:00:00 4,1 3,9 2 1 - - SE 0,0
18.05.2018 06:00:00 1,8 1,5 2 1 - - SE 0,0
18.05.2018 05:00:00 2,1 1,9 4 2 - - SE 0,0
18.05.2018 04:00:00 1,5 1,3 5 3 - - ESE 0,0
18.05.2018 03:00:00 0,2 -0,2 2 1 - - SW 0,0
18.05.2018 02:00:00 1,1 0,4 0 0 - - N 0,0
18.05.2018 01:00:00 2,5 1,9 2 1 - - NE 0,0
18.05.2018 00:00:00 2,4 0,9 4 2 - - E 0,0
17.05.2018 23:00:00 5,2 3,0 2 1 - - ENE 0,0
17.05.2018 22:00:00 7,3 3,8 8 4 - - SSE 0,0
17.05.2018 21:00:00 8,9 5,0 21 11 - - SSE 0,0
17.05.2018 20:00:00 11,9 5,5 21 11 - - SSE 0,0
17.05.2018 19:00:00 13,9 4,4 16 9 - - SSE 0,0
17.05.2018 18:00:00 13,8 3,3 16 9 - - SSE 0,0
17.05.2018 17:00:00 14,7 3,0 16 9 - - SSE 0,0
17.05.2018 16:00:00 14,5 3,6 18 10 - - SE 0,0
17.05.2018 15:00:00 16,1 4,5 9 5 - - SSW 0,0
17.05.2018 14:00:00 15,1 3,0 8 4 - - S 0,0
17.05.2018 13:00:00 15,2 3,1 5 3 - - SSW 0,0
17.05.2018 12:00:00 14,0 2,3 2 1 - - SE 0,0
17.05.2018 11:00:00 12,9 4,2 4 2 - - SSE 0,0
17.05.2018 10:00:00 11,4 3,9 5 3 - - SE 0,0
17.05.2018 09:00:00 9,7 3,7 2 1 - - SE 0,0
17.05.2018 08:00:00 5,2 4,4 2 1 - - SSE 0,0
17.05.2018 07:00:00 1,4 1,1 4 2 - - SSE 0,0
17.05.2018 06:00:00 0,5 0,0 4 2 - - SSE 0,0
17.05.2018 05:00:00 0,4 0,1 4 2 - - ESE 0,0
17.05.2018 04:00:00 0,0 -0,4 4 2 - - SSW 0,0
17.05.2018 03:00:00 0,5 -0,1 4 2 - - S 0,0
17.05.2018 02:00:00 1,1 0,4 4 2 - - SE 0,0

tt = temperature
td = dewpoint
ff = wind speed
fx = gusts
dd = wind direction
rr = precipitation

Next stations